Portada
METAR-TAF:

METAR-TAF

Aeropuertos :

Halmstad, Suecia

latitud: 56-41N, longitud: 012-50E, altitud: 30 m

Observación

El informe se hizo hace 20 minutos, a las 06:50 UTC
Viento 9 kt del sureste
Temperatura 5°C
Humedad 93%
Presión 1016 hPa
Visibilidad: 4300 m
neblina

METAR: ESMT 180650Z AUTO 14009KT 4300 BR NCD 05/04 Q1016

Hora: 08:10 (07:10 UTC)

Pronóstico

El informe se hizo hace 1 hora y 55 minutos, a las 05:15 UTC
Pronóstico válido del 18 a las 06 UTC al 18 a las 15 UTC
Viento 8 kt del sureste
Visibilidad: 5000 m
Nubes dispersas a una altura de 600 ft
Temporalmente
del 18 a las 06 UTC al 18 a las 09 UTC
Visibilidad: 3000 m
Cielo nuboso a una altura de 600 ft
neblina

TAF: ESMT 180515Z 1806/1815 13008KT 5000 SCT006 TEMPO 1806/1809 3000 BR BKN006

Observaciones y pronósticos meteorológicos de más de 4000 aeropuertos (mensajes METAR y TAF).

Los puntos amarillos y rojos representan las estaciones disponibles.

Ponga el ratón en el punto deseado para ver el nombre de la estación.

Haga clic para ver las observaciones y los pronósticos meteorológicos.

Para cambiar el mapa : haga clic en los botones verdes con una cruz de color negro para hacer un zoom, en el botón verde con un guión para alejar o en las flechas verdes para mapas adyacentes.


METAR-TAF: